Saraphi, Thailand
Current Conditions -  °F | °C
As of 1:00 PM on Sunday 26 Oct 2014 (Local Time) from VTCC Reporting Station
Few Clouds Few Clouds  
Wind Chill: 90°   Ceiling: Unl
Heat Index: 92°   Visibility: 6mi
Dew Point: 66°   Wind: 5mph
Humidity: 46%   Direction: 170°S
Pressure: 30"   Gusts: NA
Location:  18.7°N, 99.05°E
Report Text: VTCC 260600Z 17004KT 9999 FEW035 32/19 Q1016 A3000 NOSIG
Loading
Personal Weather Stations






























Interactive Weather Map
Tropical Storm Tracking
New forecast layout! Learn more

10-Day Weather Forecast

Advertisements
Track Severe Weather on mobile